createdAt,value
2017-08-17T00:02:19.060Z,101290
2017-08-17T00:04:48.956Z,101283
2017-08-17T00:07:19.270Z,101277
2017-08-17T00:09:49.126Z,101271
2017-08-17T00:12:19.439Z,101274
2017-08-17T00:14:49.371Z,101271
2017-08-17T00:17:19.634Z,101260
2017-08-17T00:19:49.507Z,101259
2017-08-17T00:22:19.772Z,101257
2017-08-17T00:24:49.664Z,101263
2017-08-17T00:27:19.910Z,101252
2017-08-17T00:29:49.795Z,101240
2017-08-17T00:32:19.695Z,101237
2017-08-17T00:34:50.318Z,101233
2017-08-17T00:37:20.190Z,101224
2017-08-17T00:39:50.513Z,101238
2017-08-17T00:42:20.371Z,101239
2017-08-17T00:44:50.668Z,101237
2017-08-17T00:47:20.616Z,101245
2017-08-17T00:49:50.873Z,101243
2017-08-17T00:52:21.698Z,101245
2017-08-17T00:54:52.034Z,101237
2017-08-17T00:57:21.897Z,101241
2017-08-17T00:59:51.788Z,101231
2017-08-17T01:02:22.015Z,101229
2017-08-17T01:04:51.869Z,101228
2017-08-17T01:07:21.865Z,101235
2017-08-17T01:09:52.131Z,101235
2017-08-17T01:12:21.996Z,101245
2017-08-17T01:14:52.223Z,101242
2017-08-17T01:17:22.083Z,101232
2017-08-17T01:19:52.289Z,101234
2017-08-17T01:22:22.174Z,101216
2017-08-17T01:24:52.374Z,101234
2017-08-17T01:27:22.230Z,101235
2017-08-17T01:29:52.445Z,101235
2017-08-17T01:32:22.313Z,101239
2017-08-17T01:34:52.604Z,101228
2017-08-17T01:37:22.579Z,101235
2017-08-17T01:39:52.851Z,101226
2017-08-17T01:42:22.781Z,101236
2017-08-17T01:44:52.640Z,101229
2017-08-17T01:47:26.243Z,101230
2017-08-17T01:49:56.099Z,101222
2017-08-17T01:52:26.316Z,101219
2017-08-17T01:54:56.232Z,101218
2017-08-17T01:57:26.543Z,101203
2017-08-17T01:59:56.385Z,101217
2017-08-17T02:02:26.648Z,101207
2017-08-17T02:04:56.497Z,101206
2017-08-17T02:07:26.790Z,101199
2017-08-17T02:09:56.635Z,101192
2017-08-17T02:12:26.938Z,101183
2017-08-17T02:14:56.801Z,101193
2017-08-17T02:17:26.677Z,101184
2017-08-17T02:19:56.974Z,101186
2017-08-17T02:22:26.823Z,101175
2017-08-17T02:24:56.721Z,101167
2017-08-17T02:27:26.947Z,101170
2017-08-17T02:29:56.811Z,101176
2017-08-17T02:32:26.697Z,101177
2017-08-17T02:34:56.904Z,101167
2017-08-17T02:37:26.757Z,101168
2017-08-17T02:39:56.666Z,101164
2017-08-17T02:42:26.879Z,101155
2017-08-17T02:44:56.744Z,101143
2017-08-17T02:47:26.628Z,101142
2017-08-17T02:49:56.937Z,101141
2017-08-17T02:52:26.830Z,101136
2017-08-17T02:54:56.695Z,101134
2017-08-17T02:57:26.924Z,101132
2017-08-17T02:59:56.798Z,101142
2017-08-17T03:02:26.673Z,101140
2017-08-17T03:04:56.959Z,101142
2017-08-17T03:07:26.806Z,101144
2017-08-17T03:09:56.692Z,101138
2017-08-17T03:12:27.039Z,101141
2017-08-17T03:14:56.934Z,101147
2017-08-17T03:17:27.162Z,101150
2017-08-17T03:19:57.014Z,101145
2017-08-17T03:22:27.275Z,101139
2017-08-17T03:24:57.130Z,101142
2017-08-17T03:27:27.327Z,101137
2017-08-17T03:29:57.223Z,101135
2017-08-17T03:32:27.446Z,101136
2017-08-17T03:34:57.335Z,101140
2017-08-17T03:37:27.579Z,101138
2017-08-17T03:39:57.421Z,101139
2017-08-17T03:42:27.731Z,101139
2017-08-17T03:44:57.773Z,101136
2017-08-17T03:47:27.950Z,101123
2017-08-17T03:49:57.805Z,101122
2017-08-17T03:52:27.682Z,101117
2017-08-17T03:54:57.900Z,101117
2017-08-17T03:57:27.772Z,101116
2017-08-17T03:59:57.656Z,101117
2017-08-17T04:02:27.886Z,101116
2017-08-17T04:04:57.752Z,101114
2017-08-17T04:07:27.621Z,101111
2017-08-17T04:09:57.961Z,101115
2017-08-17T04:12:27.819Z,101109
2017-08-17T04:14:57.703Z,101109
2017-08-17T04:17:27.942Z,101106
2017-08-17T04:19:57.857Z,101106
2017-08-17T04:22:27.839Z,101106
2017-08-17T04:24:58.111Z,101094
2017-08-17T04:27:27.968Z,101081
2017-08-17T04:29:58.224Z,101083
2017-08-17T04:32:28.081Z,101081
2017-08-17T04:34:58.367Z,101086
2017-08-17T04:37:28.209Z,101085
2017-08-17T04:39:58.621Z,101079
2017-08-17T04:42:28.469Z,101081
2017-08-17T04:44:58.719Z,101079
2017-08-17T04:47:28.590Z,101088
2017-08-17T04:49:58.872Z,101088
2017-08-17T04:52:28.739Z,101073
2017-08-17T04:54:59.087Z,101075
2017-08-17T04:57:46.636Z,101070
2017-08-17T05:00:16.869Z,101056
2017-08-17T05:02:46.739Z,101068
2017-08-17T05:05:16.646Z,101068
2017-08-17T05:07:46.903Z,101070
2017-08-17T05:10:16.794Z,101061
2017-08-17T05:12:46.663Z,101060
2017-08-17T05:15:16.866Z,101053
2017-08-17T05:17:46.727Z,101061
2017-08-17T05:20:16.604Z,101067
2017-08-17T05:22:46.899Z,101065
2017-08-17T05:25:16.777Z,101053
2017-08-17T05:27:46.653Z,101052
2017-08-17T05:30:16.951Z,101049
2017-08-17T05:32:46.835Z,101053
2017-08-17T05:35:19.759Z,101045
2017-08-17T05:37:50.239Z,101036
2017-08-17T05:40:20.090Z,101033
2017-08-17T05:42:50.325Z,101035
2017-08-17T05:45:20.182Z,101037
2017-08-17T05:47:50.415Z,101043
2017-08-17T05:50:20.337Z,101037
2017-08-17T05:52:50.576Z,101030
2017-08-17T05:55:20.427Z,101034
2017-08-17T05:57:50.699Z,101021
2017-08-17T06:00:20.570Z,101019
2017-08-17T06:02:50.851Z,101031
2017-08-17T06:05:20.773Z,101025
2017-08-17T06:07:51.144Z,101027
2017-08-17T06:10:21.050Z,101028
2017-08-17T06:12:51.318Z,101034
2017-08-17T06:15:21.171Z,101026
2017-08-17T06:17:51.399Z,101025
2017-08-17T06:20:21.319Z,101029
2017-08-17T06:22:51.594Z,101015
2017-08-17T06:25:21.473Z,101012
2017-08-17T06:27:51.717Z,101006
2017-08-17T06:30:21.603Z,101011
2017-08-17T06:32:51.775Z,101000
2017-08-17T06:35:21.726Z,101000
2017-08-17T06:37:51.678Z,101002
2017-08-17T06:40:21.880Z,100997
2017-08-17T06:42:51.740Z,100994
2017-08-17T06:45:21.635Z,100990
2017-08-17T06:47:51.941Z,100985
2017-08-17T06:50:21.855Z,100986
2017-08-17T06:52:51.777Z,100987
2017-08-17T06:55:22.111Z,100983
2017-08-17T06:57:51.977Z,100983
2017-08-17T07:00:22.227Z,100977
2017-08-17T07:02:52.080Z,100977
2017-08-17T07:05:22.290Z,100977
2017-08-17T07:07:52.158Z,100963
2017-08-17T07:10:22.395Z,100959
2017-08-17T07:12:52.315Z,100958
2017-08-17T07:15:22.643Z,100954
2017-08-17T07:17:52.522Z,100950
2017-08-17T07:20:22.786Z,100950
2017-08-17T07:22:52.687Z,100948
2017-08-17T07:25:23.041Z,100951
2017-08-17T07:27:52.915Z,100943
2017-08-17T07:30:23.246Z,100941
2017-08-17T07:32:53.189Z,100932
2017-08-17T07:35:23.373Z,100925
2017-08-17T07:37:53.264Z,100922
2017-08-17T07:40:23.462Z,100916
2017-08-17T07:42:53.325Z,100915
2017-08-17T07:45:23.545Z,100915
2017-08-17T07:47:53.439Z,100905
2017-08-17T07:50:23.706Z,100913
2017-08-17T07:52:53.678Z,100923
2017-08-17T07:55:24.031Z,100929
2017-08-17T07:57:54.761Z,100923
2017-08-17T08:00:25.147Z,100931
2017-08-17T08:02:55.062Z,100920
2017-08-17T08:05:25.461Z,100921
2017-08-17T08:07:55.326Z,100918
2017-08-17T08:10:25.669Z,100913
2017-08-17T08:12:55.571Z,100903
2017-08-17T08:15:25.822Z,100911
2017-08-17T08:17:55.812Z,100902
2017-08-17T08:20:26.089Z,100902
2017-08-17T08:22:56.105Z,100908
2017-08-17T08:25:26.520Z,100904
2017-08-17T08:27:56.377Z,100909
2017-08-17T08:30:26.774Z,100909
2017-08-17T08:32:56.662Z,100902
2017-08-17T08:35:26.979Z,100899
2017-08-17T08:37:56.909Z,100897
2017-08-17T08:40:26.812Z,100884
2017-08-17T08:42:58.291Z,100888
2017-08-17T08:45:28.440Z,100882
2017-08-17T08:47:58.774Z,100886
2017-08-17T08:50:28.709Z,100878
2017-08-17T08:52:59.097Z,100877
2017-08-17T08:55:31.757Z,100875
2017-08-17T08:58:03.804Z,100874
2017-08-17T09:00:34.045Z,100864
2017-08-17T09:03:04.329Z,100860
2017-08-17T09:05:34.382Z,100854
2017-08-17T09:08:04.636Z,100852
2017-08-17T09:10:34.611Z,100855
2017-08-17T09:13:04.878Z,100848
2017-08-17T09:15:34.980Z,100837
2017-08-17T09:18:05.272Z,100828
2017-08-17T09:20:35.123Z,100828
2017-08-17T09:23:05.461Z,100827
2017-08-17T09:25:35.331Z,100805
2017-08-17T09:28:05.585Z,100830
2017-08-17T09:30:35.454Z,100835
2017-08-17T09:33:05.691Z,100826
2017-08-17T09:35:35.559Z,100814
2017-08-17T09:38:06.028Z,100818
2017-08-17T09:40:35.918Z,100812
2017-08-17T09:43:05.791Z,100808
2017-08-17T09:45:35.987Z,100802
2017-08-17T09:48:05.882Z,100797
2017-08-17T09:50:35.800Z,100794
2017-08-17T10:06:06.185Z,100772
2017-08-17T10:08:36.037Z,100775
2017-08-17T10:11:06.376Z,100773
2017-08-17T10:13:36.270Z,100774
2017-08-17T10:16:06.567Z,100766
2017-08-17T10:18:36.436Z,100772
2017-08-17T10:21:06.747Z,100768
2017-08-17T10:23:36.659Z,100763
2017-08-17T10:26:06.936Z,100761
2017-08-17T10:28:36.818Z,100753
2017-08-17T10:31:06.696Z,100748
2017-08-17T10:33:36.927Z,100752
2017-08-17T10:36:06.805Z,100751
2017-08-17T10:38:36.751Z,100741
2017-08-17T10:41:06.973Z,100744
2017-08-17T10:43:36.899Z,100741
2017-08-17T10:46:06.814Z,100741
2017-08-17T10:48:37.120Z,100751
2017-08-17T10:51:06.998Z,100736
2017-08-17T10:53:37.468Z,100732
2017-08-17T10:56:07.345Z,100739
2017-08-17T10:58:37.598Z,100737
2017-08-17T11:01:07.458Z,100735
2017-08-17T11:03:37.743Z,100733
2017-08-17T11:06:07.653Z,100727
2017-08-17T11:08:37.944Z,100730
2017-08-17T11:11:07.826Z,100728
2017-08-17T11:13:37.821Z,100723
2017-08-17T11:16:08.113Z,100719
2017-08-17T11:18:37.990Z,100727
2017-08-17T11:21:08.275Z,100723
2017-08-17T11:23:38.177Z,100719
2017-08-17T11:26:08.494Z,100716
2017-08-17T11:28:38.351Z,100712
2017-08-17T11:31:08.666Z,100711
2017-08-17T11:33:38.528Z,100702
2017-08-17T11:36:08.875Z,100689
2017-08-17T11:38:38.826Z,100697
2017-08-17T11:41:09.199Z,100694
2017-08-17T11:43:39.054Z,100691
2017-08-17T11:46:09.336Z,100688
2017-08-17T11:48:38.789Z,100672
2017-08-17T11:51:08.154Z,100687
2017-08-17T11:53:38.482Z,100686
2017-08-17T11:56:08.360Z,100677
2017-08-17T11:58:38.816Z,100692
2017-08-17T12:01:08.667Z,100674
2017-08-17T12:03:38.958Z,100687
2017-08-17T12:06:08.890Z,100686
2017-08-17T12:08:38.759Z,100684
2017-08-17T12:11:09.121Z,100680
2017-08-17T12:13:38.981Z,100675
2017-08-17T12:16:09.210Z,100673
2017-08-17T12:18:39.067Z,100672
2017-08-17T12:21:09.376Z,100661
2017-08-17T12:23:39.260Z,100669
2017-08-17T12:26:09.496Z,100664
2017-08-17T12:28:39.384Z,100671
2017-08-17T12:31:09.584Z,100682
2017-08-17T12:33:39.448Z,100670
2017-08-17T12:36:09.785Z,100670
2017-08-17T12:38:39.656Z,100676
2017-08-17T12:41:10.071Z,100668
2017-08-17T12:43:39.932Z,100667
2017-08-17T12:46:09.822Z,100665
2017-08-17T12:48:40.167Z,100667
2017-08-17T12:51:10.067Z,100664
2017-08-17T12:53:40.387Z,100658
2017-08-17T12:56:10.265Z,100663
2017-08-17T12:58:40.509Z,100664
2017-08-17T13:01:10.422Z,100665
2017-08-17T13:03:40.659Z,100657
2017-08-17T13:06:10.562Z,100659
2017-08-17T13:08:40.789Z,100656
2017-08-17T13:11:10.853Z,100563
2017-08-17T13:13:41.136Z,100655
2017-08-17T13:16:11.045Z,100658
2017-08-17T13:18:42.415Z,100661
2017-08-17T13:21:12.314Z,100665
2017-08-17T13:23:42.691Z,100659
2017-08-17T13:26:12.801Z,100666
2017-08-17T13:28:43.091Z,100666
2017-08-17T13:31:12.960Z,100657
2017-08-17T13:33:43.219Z,100656
2017-08-17T13:36:13.173Z,100656
2017-08-17T13:38:43.372Z,100650
2017-08-17T13:41:13.235Z,100671
2017-08-17T13:43:43.496Z,100664
2017-08-17T13:46:13.395Z,100667
2017-08-17T13:48:43.720Z,100670
2017-08-17T13:51:13.616Z,100671
2017-08-17T13:53:43.843Z,100673
2017-08-17T13:56:13.728Z,100670
2017-08-17T13:58:43.613Z,100673
2017-08-17T14:01:13.871Z,100665
2017-08-17T14:03:43.757Z,100662
2017-08-17T14:06:13.673Z,100658
2017-08-17T14:08:43.979Z,100664
2017-08-17T14:11:13.850Z,100667
2017-08-17T14:13:43.739Z,100670
2017-08-17T14:16:14.013Z,100672
2017-08-17T14:18:43.900Z,100669
2017-08-17T14:21:13.799Z,100668
2017-08-17T14:23:44.042Z,100668
2017-08-17T14:26:13.915Z,100660
2017-08-17T14:28:43.867Z,100660
2017-08-17T14:31:14.296Z,100657
2017-08-17T14:33:44.160Z,100654
2017-08-17T14:36:14.433Z,100654
2017-08-17T14:38:44.300Z,100649
2017-08-17T14:41:14.565Z,100655
2017-08-17T14:43:44.435Z,100652
2017-08-17T14:46:14.715Z,100653
2017-08-17T14:48:44.590Z,100606
2017-08-17T14:51:14.931Z,100645
2017-08-17T14:53:44.804Z,100637
2017-08-17T14:56:14.685Z,100638
2017-08-17T14:58:45.193Z,100632
2017-08-17T15:01:15.699Z,100624
2017-08-17T15:03:46.128Z,100625
2017-08-17T15:06:15.985Z,100605
2017-08-17T15:08:46.194Z,100616
2017-08-17T15:11:16.071Z,100620
2017-08-17T15:13:46.391Z,100622
2017-08-17T15:16:16.261Z,100618
2017-08-17T15:18:46.507Z,100617
2017-08-17T15:21:16.370Z,100618
2017-08-17T15:23:46.628Z,100608
2017-08-17T15:26:16.547Z,100618
2017-08-17T15:28:46.827Z,100622
2017-08-17T15:31:16.716Z,100616
2017-08-17T15:33:47.298Z,100624
2017-08-17T15:36:17.175Z,100629
2017-08-17T15:38:48.928Z,100626
2017-08-17T15:41:18.792Z,100626
2017-08-17T15:43:48.693Z,100635
2017-08-17T15:46:18.900Z,100636
2017-08-17T15:48:48.783Z,100635
2017-08-17T15:51:18.951Z,100636
2017-08-17T15:53:49.256Z,100638
2017-08-17T15:56:19.128Z,100637
2017-08-17T15:58:49.382Z,100648
2017-08-17T16:01:19.262Z,100653
2017-08-17T16:03:49.694Z,100663
2017-08-17T16:06:19.560Z,100678
2017-08-17T16:08:49.791Z,100674
2017-08-17T16:11:19.688Z,100676
2017-08-17T16:13:49.982Z,100672
2017-08-17T16:16:19.893Z,100666
2017-08-17T16:18:49.778Z,100670
2017-08-17T16:21:20.035Z,100665
2017-08-17T16:23:49.927Z,100665
2017-08-17T16:26:19.826Z,100664
2017-08-17T16:28:50.178Z,100656
2017-08-17T16:31:20.061Z,100656
2017-08-17T16:33:50.334Z,100654
2017-08-17T16:36:20.216Z,100651
2017-08-17T16:38:50.462Z,100652
2017-08-17T16:41:20.355Z,100645
2017-08-17T16:43:50.579Z,100639
2017-08-17T16:46:20.541Z,100640
2017-08-17T16:48:50.874Z,100648
2017-08-17T16:51:20.798Z,100641
2017-08-17T16:53:51.068Z,100647
2017-08-17T16:56:20.922Z,100645
2017-08-17T16:58:51.192Z,100641
2017-08-17T17:01:21.075Z,100651
2017-08-17T17:03:52.490Z,100646
2017-08-17T17:06:22.324Z,100646
2017-08-17T17:08:52.559Z,100640
2017-08-17T17:11:22.467Z,100650
2017-08-17T17:13:52.713Z,100655
2017-08-17T17:16:22.579Z,100650
2017-08-17T17:18:52.894Z,100650
2017-08-17T17:21:22.766Z,100655
2017-08-17T17:23:53.137Z,100651
2017-08-17T17:26:23.026Z,100652
2017-08-17T17:28:53.303Z,100649
2017-08-17T17:31:23.187Z,100647
2017-08-17T17:33:54.637Z,100643
2017-08-17T17:36:24.565Z,100634
2017-08-17T17:38:54.810Z,100641
2017-08-17T17:41:24.696Z,100631
2017-08-17T17:43:54.964Z,100635
2017-08-17T17:46:24.843Z,100639
2017-08-17T17:48:54.739Z,100639
2017-08-17T17:51:24.966Z,100640
2017-08-17T17:53:54.870Z,100646
2017-08-17T17:56:24.770Z,100651
2017-08-17T17:58:55.068Z,100649
2017-08-17T18:01:24.959Z,100633
2017-08-17T18:03:55.312Z,100647
2017-08-17T18:06:25.200Z,100638
2017-08-17T18:08:55.537Z,100643
2017-08-17T18:11:25.450Z,100650
2017-08-17T18:13:55.776Z,100655
2017-08-17T18:16:25.650Z,100650
2017-08-17T18:18:56.074Z,100657
2017-08-17T18:21:25.956Z,100649
2017-08-17T18:23:56.264Z,100654
2017-08-17T18:26:26.186Z,100652
2017-08-17T18:28:56.590Z,100659
2017-08-17T18:31:26.485Z,100653
2017-08-17T18:33:56.820Z,100651
2017-08-17T18:36:26.770Z,100656
2017-08-17T18:38:57.100Z,100659
2017-08-17T18:41:27.017Z,100645
2017-08-17T18:43:57.313Z,100647
2017-08-17T18:46:27.267Z,100635
2017-08-17T18:48:57.703Z,100641
2017-08-17T18:51:27.686Z,100626
2017-08-17T18:53:58.043Z,100622
2017-08-17T18:56:27.988Z,100628
2017-08-17T18:58:58.428Z,100619
2017-08-17T19:01:28.357Z,100616
2017-08-17T19:03:58.812Z,100620
2017-08-17T19:06:28.788Z,100618
2017-08-17T19:08:59.249Z,100617
2017-08-17T19:11:29.216Z,100612
2017-08-17T19:14:00.038Z,100601
2017-08-17T19:16:31.150Z,100618
2017-08-17T19:19:01.675Z,100626
2017-08-17T19:21:31.613Z,100631
2017-08-17T19:24:01.954Z,100640
2017-08-17T19:26:31.939Z,100649
2017-08-17T19:29:02.268Z,100648
2017-08-17T19:31:32.212Z,100645
2017-08-17T19:34:02.551Z,100645
2017-08-17T19:36:32.525Z,100641
2017-08-17T19:39:02.820Z,100651
2017-08-17T19:41:32.743Z,100641
2017-08-17T19:44:03.066Z,100646
2017-08-17T19:46:32.978Z,100646
2017-08-17T19:49:03.247Z,100638
2017-08-17T19:51:33.132Z,100633
2017-08-17T19:54:03.377Z,100644
2017-08-17T19:56:33.299Z,100642
2017-08-17T19:59:03.658Z,100645
2017-08-17T20:01:33.564Z,100650
2017-08-17T20:04:03.937Z,100646
2017-08-17T20:06:33.835Z,100648
2017-08-17T20:09:04.098Z,100641
2017-08-17T20:11:34.005Z,100653
2017-08-17T20:14:04.289Z,100639
2017-08-17T20:16:34.272Z,100636
2017-08-17T20:19:04.681Z,100638
2017-08-17T20:21:34.575Z,100642
2017-08-17T20:24:04.901Z,100644
2017-08-17T20:26:35.950Z,100653
2017-08-17T20:29:06.197Z,100654
2017-08-17T20:31:36.135Z,100648
2017-08-17T20:34:06.459Z,100641
2017-08-17T20:36:36.464Z,100644
2017-08-17T20:39:06.742Z,100644
2017-08-17T20:41:36.652Z,100643
2017-08-17T20:44:06.984Z,100639
2017-08-17T20:46:36.904Z,100642
2017-08-17T20:49:06.842Z,100644
2017-08-17T20:51:37.130Z,100643
2017-08-17T20:54:07.009Z,100641
2017-08-17T20:56:37.987Z,100635
2017-08-17T20:59:07.885Z,100637
2017-08-17T21:01:38.218Z,100637
2017-08-17T21:04:08.190Z,100639
2017-08-17T21:06:38.469Z,100640
2017-08-17T21:09:08.425Z,100640
2017-08-17T21:11:38.654Z,100636
2017-08-17T21:14:08.545Z,100620
2017-08-17T21:16:38.934Z,100639
2017-08-17T21:19:08.840Z,100638
2017-08-17T21:21:39.169Z,100632
2017-08-17T21:24:09.133Z,100631
2017-08-17T21:26:39.390Z,100636
2017-08-17T21:29:09.302Z,100639
2017-08-17T21:31:39.551Z,100640
2017-08-17T21:34:09.454Z,100632
2017-08-17T21:36:39.736Z,100633
2017-08-17T21:39:09.703Z,100634
2017-08-17T21:41:40.034Z,100644
2017-08-17T21:44:09.967Z,100640
2017-08-17T21:46:40.184Z,100642
2017-08-17T21:49:10.202Z,100642
2017-08-17T21:51:40.547Z,100644
2017-08-17T21:54:10.471Z,100645
2017-08-17T21:56:40.872Z,100640
2017-08-17T21:59:10.830Z,100637
2017-08-17T22:01:41.073Z,100634
2017-08-17T22:04:10.959Z,100640
2017-08-17T22:06:41.220Z,100641
2017-08-17T22:09:11.087Z,100635
2017-08-17T22:11:41.318Z,100640
2017-08-17T22:14:11.201Z,100641
2017-08-17T22:16:41.681Z,100635
2017-08-17T22:19:11.555Z,100640
2017-08-17T22:21:41.751Z,100640
2017-08-17T22:24:11.738Z,100638
2017-08-17T22:26:42.157Z,100638
2017-08-17T22:29:12.044Z,100643
2017-08-17T22:31:42.282Z,100639
2017-08-17T22:34:12.146Z,100642
2017-08-17T22:36:42.519Z,100640
2017-08-17T22:39:12.403Z,100645
2017-08-17T22:41:42.628Z,100637
2017-08-17T22:44:12.515Z,100637
2017-08-17T22:46:42.825Z,100635
2017-08-17T22:49:12.695Z,100646
2017-08-17T22:51:42.904Z,100641
2017-08-17T22:54:12.768Z,100644
2017-08-17T22:56:42.690Z,100636
2017-08-17T22:59:12.937Z,100631
2017-08-17T23:01:42.851Z,100563
2017-08-17T23:04:12.748Z,100630
2017-08-17T23:06:43.020Z,100640
2017-08-17T23:09:12.878Z,100635
2017-08-17T23:11:42.781Z,100638
2017-08-17T23:14:13.055Z,100630
2017-08-17T23:16:42.930Z,100637
2017-08-17T23:19:12.816Z,100632
2017-08-17T23:21:43.124Z,100637
2017-08-17T23:24:12.997Z,100628
2017-08-17T23:26:43.227Z,100627
2017-08-17T23:29:13.184Z,100617
2017-08-17T23:31:43.492Z,100622
2017-08-17T23:34:13.356Z,100624
2017-08-17T23:36:43.724Z,100621
2017-08-17T23:39:13.589Z,100626
2017-08-17T23:41:43.847Z,100619
2017-08-17T23:44:13.751Z,100611
2017-08-17T23:46:43.961Z,100616
2017-08-17T23:49:13.829Z,100615
2017-08-17T23:51:43.712Z,100616
2017-08-17T23:54:13.922Z,100613
2017-08-17T23:56:43.778Z,100613
2017-08-17T23:59:13.664Z,100619
